Plover Skycam (click)  Plover Skycam (click)


Rain radar more information rain snow radar



There are no active watches, warnings or advisories

Nearby METAR Reports

   
KISW - Wisconsin Rapids, WI
Updated: Jan 19 2018 2:54 am
Clear  
Clear  
   Wind: SW 4.6 mph
Wind: SW 4.6 mph
Temperature: 24.8°F
Wind Chill: 19.4°F
Dew Point: 17.6°F
Humidity: 74%
Barometer: 29.77 inHg
Clouds: Clear
Visibility: 10 mi
Cloud details: Clear
KISW 190854Z AUTO 22004KT 10SM CLR M04/M08 A2977 RMK AO2 SLP093 T10441083 56013
KSTE - Stevens Point, WI
Updated: Jan 19 2018 2:55 am
Clear  
Clear  
   Wind: SW 4.6 mph
Wind: SW 4.6 mph
Temperature: 24.8°F
Wind Chill: 19.4°F
Dew Point: 19.4°F
Humidity: 80%
Barometer: 29.76 inHg
Clouds: Clear
Visibility: 10 mi
Cloud details: Clear
KSTE 190855Z AUTO 23004KT 10SM CLR M04/M07 A2976 RMK AO2 T10451072
KMFI - Marshfield, WI
Updated: Jan 19 2018 2:54 am
Clear  
Clear  
   Wind: SW 9.2 mph
Wind: SW 9.2 mph
Temperature: 23°F
Wind Chill: 12.2°F
Dew Point: 19.4°F
Humidity: 86%
Barometer: 29.71 inHg
Clouds: Clear
Visibility: 9 mi
Cloud details: Clear
KMFI 190854Z AUTO 22008KT 9SM CLR M05/M07 A2971 RMK AO2 SLP079 T10501072 58014 TSNO
KISW - Friendship, WI
Updated: Jan 19 2018 2:54 am
Clear  
Clear  
   Wind: SW 4.6 mph
Wind: SW 4.6 mph
Temperature: 24.8°F
Wind Chill: 19.4°F
Dew Point: 17.6°F
Humidity: 74%
Barometer: 29.77 inHg
Clouds: Clear
Visibility: 10 mi
Cloud details: Clear
KISW 190854Z AUTO 22004KT 10SM CLR M04/M08 A2977 RMK AO2 SLP093 T10441083 56013
KSTE - Waupaca, WI
Updated: Jan 19 2018 2:55 am
Clear  
Clear  
   Wind: SW 4.6 mph
Wind: SW 4.6 mph
Temperature: 24.8°F
Wind Chill: 19.4°F
Dew Point: 19.4°F
Humidity: 80%
Barometer: 29.76 inHg
Clouds: Clear
Visibility: 10 mi
Cloud details: Clear
KSTE 190855Z AUTO 23004KT 10SM CLR M04/M07 A2976 RMK AO2 T10451072
KSTE - Custer, WI
Updated: Jan 19 2018 2:55 am
Clear  
Clear  
   Wind: SW 4.6 mph
Wind: SW 4.6 mph
Temperature: 24.8°F
Wind Chill: 19.4°F
Dew Point: 19.4°F
Humidity: 80%
Barometer: 29.76 inHg
Clouds: Clear
Visibility: 10 mi
Cloud details: Clear
KSTE 190855Z AUTO 23004KT 10SM CLR M04/M07 A2976 RMK AO2 T10451072
KEAU - Eau Claire, WI
Updated: Jan 19 2018 2:56 am
Clear  
Clear  
   Wind: South 3.5 mph
Wind: South 3.5 mph
Temperature: 21.2°F
Wind Chill: 15.8°F
Dew Point: 19.4°F
Humidity: 93%
Barometer: 29.73 inHg
Clouds: Clear
Visibility: 7 mi
Cloud details: Clear
KEAU 190856Z AUTO 18003KT 7SM CLR M06/M07 A2973 RMK AO2 SLP080 T10561067 55012
  

Script developed by  Saratoga-weather.org Adapted for the template by  Weerstation Leuven